sensor_id;sensor_type;location;lat;lon;timestamp;P1;durP1;ratioP1;P2;durP2;ratioP2
75837;SDS011;64480;52.040;113.502;2024-03-08T00:02:41;56.05;;;17.27;;
75837;SDS011;64480;52.040;113.502;2024-03-08T00:05:46;53.58;;;20.27;;
75837;SDS011;64480;52.040;113.502;2024-03-08T00:08:50;55.50;;;18.35;;
75837;SDS011;64480;52.040;113.502;2024-03-08T00:11:54;46.80;;;16.83;;
75837;SDS011;64480;52.040;113.502;2024-03-08T00:14:58;63.72;;;21.10;;
75837;SDS011;64480;52.040;113.502;2024-03-08T00:18:06;86.53;;;25.92;;
75837;SDS011;64480;52.040;113.502;2024-03-08T00:21:10;65.75;;;27.90;;
75837;SDS011;64480;52.040;113.502;2024-03-08T00:24:15;79.03;;;25.23;;
75837;SDS011;64480;52.040;113.502;2024-03-08T00:27:19;79.93;;;27.88;;
75837;SDS011;64480;52.040;113.502;2024-03-08T00:30:23;71.82;;;27.88;;
75837;SDS011;64480;52.040;113.502;2024-03-08T00:33:27;141.75;;;50.70;;
75837;SDS011;64480;52.040;113.502;2024-03-08T00:36:31;81.93;;;33.15;;
75837;SDS011;64480;52.040;113.502;2024-03-08T00:39:35;86.78;;;31.45;;
75837;SDS011;64480;52.040;113.502;2024-03-08T00:42:39;75.50;;;26.38;;
75837;SDS011;64480;52.040;113.502;2024-03-08T00:45:44;77.65;;;26.58;;
75837;SDS011;64480;52.040;113.502;2024-03-08T00:48:47;55.13;;;21.80;;
75837;SDS011;64480;52.040;113.502;2024-03-08T00:51:50;51.35;;;20.95;;
75837;SDS011;64480;52.040;113.502;2024-03-08T00:54:53;47.75;;;22.45;;
75837;SDS011;64480;52.040;113.502;2024-03-08T00:57:57;51.22;;;20.92;;
75837;SDS011;64480;52.040;113.502;2024-03-08T01:01:06;43.72;;;20.73;;
75837;SDS011;64480;52.040;113.502;2024-03-08T01:04:10;71.78;;;26.13;;
75837;SDS011;64480;52.040;113.502;2024-03-08T01:07:14;63.83;;;28.38;;
75837;SDS011;64480;52.040;113.502;2024-03-08T01:10:17;78.03;;;28.63;;
75837;SDS011;64480;52.040;113.502;2024-03-08T01:13:20;74.30;;;28.08;;
75837;SDS011;64480;52.040;113.502;2024-03-08T01:16:24;62.70;;;28.35;;
75837;SDS011;64480;52.040;113.502;2024-03-08T01:19:28;87.53;;;34.25;;
75837;SDS011;64480;52.040;113.502;2024-03-08T01:22:31;94.18;;;31.20;;
75837;SDS011;64480;52.040;113.502;2024-03-08T01:25:34;97.43;;;34.50;;
75837;SDS011;64480;52.040;113.502;2024-03-08T01:28:38;69.05;;;27.77;;
75837;SDS011;64480;52.040;113.502;2024-03-08T01:31:41;84.32;;;30.70;;
75837;SDS011;64480;52.040;113.502;2024-03-08T01:34:44;58.45;;;24.55;;
75837;SDS011;64480;52.040;113.502;2024-03-08T01:37:48;63.95;;;26.95;;
75837;SDS011;64480;52.040;113.502;2024-03-08T01:40:52;54.38;;;22.67;;
75837;SDS011;64480;52.040;113.502;2024-03-08T01:43:54;66.63;;;22.23;;
75837;SDS011;64480;52.040;113.502;2024-03-08T01:46:58;49.53;;;26.55;;
75837;SDS011;64480;52.040;113.502;2024-03-08T01:50:04;73.97;;;25.30;;
75837;SDS011;64480;52.040;113.502;2024-03-08T01:53:11;41.28;;;22.67;;
75837;SDS011;64480;52.040;113.502;2024-03-08T01:56:17;51.00;;;21.42;;
75837;SDS011;64480;52.040;113.502;2024-03-08T01:59:21;64.30;;;25.80;;
75837;SDS011;64480;52.040;113.502;2024-03-08T02:02:25;69.63;;;24.48;;
75837;SDS011;64480;52.040;113.502;2024-03-08T02:05:29;49.40;;;20.77;;
75837;SDS011;64480;52.040;113.502;2024-03-08T02:08:33;58.70;;;20.27;;
75837;SDS011;64480;52.040;113.502;2024-03-08T02:11:37;37.45;;;17.65;;
75837;SDS011;64480;52.040;113.502;2024-03-08T02:14:41;61.10;;;16.30;;
75837;SDS011;64480;52.040;113.502;2024-03-08T02:17:45;38.80;;;16.02;;
75837;SDS011;64480;52.040;113.502;2024-03-08T02:20:52;41.42;;;19.23;;
75837;SDS011;64480;52.040;113.502;2024-03-08T02:23:56;40.33;;;16.65;;
75837;SDS011;64480;52.040;113.502;2024-03-08T02:26:59;41.63;;;16.27;;
75837;SDS011;64480;52.040;113.502;2024-03-08T02:30:06;47.08;;;12.75;;
75837;SDS011;64480;52.040;113.502;2024-03-08T02:33:11;19.75;;;8.25;;
75837;SDS011;64480;52.040;113.502;2024-03-08T02:39:23;9.13;;;5.72;;
75837;SDS011;64480;52.040;113.502;2024-03-08T02:42:26;21.17;;;9.57;;
75837;SDS011;64480;52.040;113.502;2024-03-08T02:45:30;34.13;;;8.55;;
75837;SDS011;64480;52.040;113.502;2024-03-08T02:48:33;45.70;;;10.73;;
75837;SDS011;64480;52.040;113.502;2024-03-08T02:51:40;24.13;;;11.68;;
75837;SDS011;64480;52.040;113.502;2024-03-08T02:54:43;32.90;;;12.27;;
75837;SDS011;64480;52.040;113.502;2024-03-08T02:57:47;31.08;;;11.75;;
75837;SDS011;64480;52.040;113.502;2024-03-08T03:00:51;28.77;;;8.02;;
75837;SDS011;64480;52.040;113.502;2024-03-08T03:03:54;17.88;;;9.43;;
75837;SDS011;64480;52.040;113.502;2024-03-08T03:06:57;31.73;;;10.23;;
75837;SDS011;64480;52.040;113.502;2024-03-08T03:10:00;29.50;;;13.80;;
75837;SDS011;64480;52.040;113.502;2024-03-08T03:13:05;32.28;;;13.70;;
75837;SDS011;64480;52.040;113.502;2024-03-08T03:16:09;29.52;;;11.30;;
75837;SDS011;64480;52.040;113.502;2024-03-08T03:19:13;26.48;;;10.98;;
75837;SDS011;64480;52.040;113.502;2024-03-08T03:22:18;19.63;;;10.30;;
75837;SDS011;64480;52.040;113.502;2024-03-08T03:25:22;18.77;;;7.53;;
75837;SDS011;64480;52.040;113.502;2024-03-08T03:28:31;21.88;;;9.88;;
75837;SDS011;64480;52.040;113.502;2024-03-08T03:31:35;37.00;;;8.05;;
75837;SDS011;64480;52.040;113.502;2024-03-08T03:34:39;23.55;;;8.90;;
75837;SDS011;64480;52.040;113.502;2024-03-08T03:37:44;21.17;;;10.52;;
75837;SDS011;64480;52.040;113.502;2024-03-08T03:40:54;31.27;;;11.32;;
75837;SDS011;64480;52.040;113.502;2024-03-08T03:44:00;32.33;;;10.05;;
75837;SDS011;64480;52.040;113.502;2024-03-08T03:47:06;20.88;;;10.55;;
75837;SDS011;64480;52.040;113.502;2024-03-08T03:50:10;22.58;;;10.02;;
75837;SDS011;64480;52.040;113.502;2024-03-08T03:53:14;28.92;;;10.88;;
75837;SDS011;64480;52.040;113.502;2024-03-08T03:56:17;26.38;;;9.68;;
75837;SDS011;64480;52.040;113.502;2024-03-08T03:59:21;24.65;;;9.90;;
75837;SDS011;64480;52.040;113.502;2024-03-08T04:02:25;31.98;;;10.23;;
75837;SDS011;64480;52.040;113.502;2024-03-08T04:05:28;24.13;;;9.32;;
75837;SDS011;64480;52.040;113.502;2024-03-08T04:08:33;27.48;;;10.07;;
75837;SDS011;64480;52.040;113.502;2024-03-08T04:11:38;28.05;;;9.88;;
75837;SDS011;64480;52.040;113.502;2024-03-08T04:14:42;28.88;;;9.60;;
75837;SDS011;64480;52.040;113.502;2024-03-08T04:17:45;33.60;;;12.63;;
75837;SDS011;64480;52.040;113.502;2024-03-08T04:20:49;30.83;;;10.95;;
75837;SDS011;64480;52.040;113.502;2024-03-08T04:23:52;27.70;;;10.10;;
75837;SDS011;64480;52.040;113.502;2024-03-08T04:26:55;25.60;;;9.75;;
75837;SDS011;64480;52.040;113.502;2024-03-08T04:30:00;25.98;;;8.52;;
75837;SDS011;64480;52.040;113.502;2024-03-08T04:33:10;22.75;;;10.27;;
75837;SDS011;64480;52.040;113.502;2024-03-08T04:36:14;24.80;;;10.05;;
75837;SDS011;64480;52.040;113.502;2024-03-08T04:39:17;20.58;;;7.88;;
75837;SDS011;64480;52.040;113.502;2024-03-08T04:42:21;18.52;;;8.38;;
75837;SDS011;64480;52.040;113.502;2024-03-08T04:45:25;20.00;;;8.32;;
75837;SDS011;64480;52.040;113.502;2024-03-08T04:48:31;27.52;;;8.70;;
75837;SDS011;64480;52.040;113.502;2024-03-08T04:51:35;20.23;;;8.85;;
75837;SDS011;64480;52.040;113.502;2024-03-08T04:54:40;24.08;;;9.27;;
75837;SDS011;64480;52.040;113.502;2024-03-08T04:57:43;23.10;;;6.72;;
75837;SDS011;64480;52.040;113.502;2024-03-08T05:00:49;25.08;;;8.63;;
75837;SDS011;64480;52.040;113.502;2024-03-08T05:03:53;14.13;;;5.07;;
75837;SDS011;64480;52.040;113.502;2024-03-08T05:07:04;20.52;;;7.30;;
75837;SDS011;64480;52.040;113.502;2024-03-08T05:10:07;23.15;;;7.20;;
75837;SDS011;64480;52.040;113.502;2024-03-08T05:13:11;41.65;;;9.65;;
75837;SDS011;64480;52.040;113.502;2024-03-08T05:16:17;15.55;;;6.47;;
75837;SDS011;64480;52.040;113.502;2024-03-08T05:19:20;15.15;;;6.18;;
75837;SDS011;64480;52.040;113.502;2024-03-08T05:22:23;22.13;;;5.97;;
75837;SDS011;64480;52.040;113.502;2024-03-08T05:25:27;16.30;;;6.55;;
75837;SDS011;64480;52.040;113.502;2024-03-08T05:28:30;13.77;;;4.43;;
75837;SDS011;64480;52.040;113.502;2024-03-08T05:31:47;19.38;;;6.18;;
75837;SDS011;64480;52.040;113.502;2024-03-08T05:34:57;18.70;;;6.22;;
75837;SDS011;64480;52.040;113.502;2024-03-08T05:38:00;51.15;;;8.95;;
75837;SDS011;64480;52.040;113.502;2024-03-08T05:41:07;10.60;;;4.13;;
75837;SDS011;64480;52.040;113.502;2024-03-08T05:44:11;29.20;;;6.07;;
75837;SDS011;64480;52.040;113.502;2024-03-08T05:47:15;23.63;;;6.70;;
75837;SDS011;64480;52.040;113.502;2024-03-08T05:50:18;22.63;;;7.18;;
75837;SDS011;64480;52.040;113.502;2024-03-08T05:53:21;23.65;;;5.35;;
75837;SDS011;64480;52.040;113.502;2024-03-08T05:56:26;30.77;;;5.70;;
75837;SDS011;64480;52.040;113.502;2024-03-08T05:59:31;18.58;;;6.63;;
75837;SDS011;64480;52.040;113.502;2024-03-08T06:02:37;26.42;;;6.65;;
75837;SDS011;64480;52.040;113.502;2024-03-08T06:08:47;16.40;;;6.65;;
75837;SDS011;64480;52.040;113.502;2024-03-08T06:11:54;18.70;;;6.00;;
75837;SDS011;64480;52.040;113.502;2024-03-08T06:14:58;14.85;;;5.50;;
75837;SDS011;64480;52.040;113.502;2024-03-08T06:18:02;21.50;;;6.47;;
75837;SDS011;64480;52.040;113.502;2024-03-08T06:21:08;21.23;;;5.22;;
75837;SDS011;64480;52.040;113.502;2024-03-08T06:24:14;20.40;;;5.78;;
75837;SDS011;64480;52.040;113.502;2024-03-08T06:27:18;21.83;;;4.97;;
75837;SDS011;64480;52.040;113.502;2024-03-08T06:30:22;33.85;;;7.90;;
75837;SDS011;64480;52.040;113.502;2024-03-08T06:33:26;25.25;;;6.18;;
75837;SDS011;64480;52.040;113.502;2024-03-08T06:36:30;18.05;;;5.95;;
75837;SDS011;64480;52.040;113.502;2024-03-08T06:39:34;16.23;;;4.53;;
75837;SDS011;64480;52.040;113.502;2024-03-08T06:42:38;15.85;;;5.25;;
75837;SDS011;64480;52.040;113.502;2024-03-08T06:45:42;27.25;;;6.18;;
75837;SDS011;64480;52.040;113.502;2024-03-08T06:48:50;14.25;;;5.20;;
75837;SDS011;64480;52.040;113.502;2024-03-08T06:51:55;16.20;;;5.55;;
75837;SDS011;64480;52.040;113.502;2024-03-08T06:55:00;14.45;;;4.00;;
75837;SDS011;64480;52.040;113.502;2024-03-08T06:58:06;28.13;;;4.63;;
75837;SDS011;64480;52.040;113.502;2024-03-08T07:01:10;11.48;;;4.40;;
75837;SDS011;64480;52.040;113.502;2024-03-08T07:04:16;9.82;;;3.85;;
75837;SDS011;64480;52.040;113.502;2024-03-08T07:07:22;21.60;;;5.28;;
75837;SDS011;64480;52.040;113.502;2024-03-08T07:10:25;38.35;;;7.70;;
75837;SDS011;64480;52.040;113.502;2024-03-08T07:13:28;21.05;;;7.65;;
75837;SDS011;64480;52.040;113.502;2024-03-08T07:16:33;35.10;;;7.32;;
75837;SDS011;64480;52.040;113.502;2024-03-08T07:19:36;35.47;;;7.20;;
75837;SDS011;64480;52.040;113.502;2024-03-08T07:22:40;22.38;;;5.90;;
75837;SDS011;64480;52.040;113.502;2024-03-08T07:25:49;21.90;;;5.85;;
75837;SDS011;64480;52.040;113.502;2024-03-08T07:28:53;26.38;;;5.20;;
75837;SDS011;64480;52.040;113.502;2024-03-08T07:31:57;12.52;;;3.63;;
75837;SDS011;64480;52.040;113.502;2024-03-08T07:35:15;19.83;;;4.38;;
75837;SDS011;64480;52.040;113.502;2024-03-08T07:38:21;8.23;;;2.80;;
75837;SDS011;64480;52.040;113.502;2024-03-08T07:41:28;16.10;;;3.90;;
75837;SDS011;64480;52.040;113.502;2024-03-08T07:44:37;25.63;;;5.07;;
75837;SDS011;64480;52.040;113.502;2024-03-08T07:47:40;18.50;;;4.35;;
75837;SDS011;64480;52.040;113.502;2024-03-08T07:50:44;12.70;;;4.53;;
75837;SDS011;64480;52.040;113.502;2024-03-08T07:53:47;14.68;;;4.00;;
75837;SDS011;64480;52.040;113.502;2024-03-08T07:56:52;13.77;;;3.70;;
75837;SDS011;64480;52.040;113.502;2024-03-08T07:59:56;12.57;;;3.38;;
75837;SDS011;64480;52.040;113.502;2024-03-08T08:03:00;10.77;;;3.53;;
75837;SDS011;64480;52.040;113.502;2024-03-08T08:06:04;24.85;;;5.90;;
75837;SDS011;64480;52.040;113.502;2024-03-08T08:09:10;28.85;;;5.80;;
75837;SDS011;64480;52.040;113.502;2024-03-08T08:12:31;22.20;;;6.40;;
75837;SDS011;64480;52.040;113.502;2024-03-08T08:15:37;22.13;;;6.78;;
75837;SDS011;64480;52.040;113.502;2024-03-08T08:18:41;17.88;;;5.72;;
75837;SDS011;64480;52.040;113.502;2024-03-08T08:21:44;26.00;;;5.85;;
75837;SDS011;64480;52.040;113.502;2024-03-08T08:24:47;10.27;;;4.55;;
75837;SDS011;64480;52.040;113.502;2024-03-08T08:27:50;24.00;;;6.13;;
75837;SDS011;64480;52.040;113.502;2024-03-08T08:30:56;25.80;;;5.65;;
75837;SDS011;64480;52.040;113.502;2024-03-08T08:33:59;15.88;;;6.63;;
75837;SDS011;64480;52.040;113.502;2024-03-08T08:37:10;22.98;;;7.90;;
75837;SDS011;64480;52.040;113.502;2024-03-08T08:40:15;14.25;;;6.25;;
75837;SDS011;64480;52.040;113.502;2024-03-08T08:43:20;17.20;;;6.53;;
75837;SDS011;64480;52.040;113.502;2024-03-08T08:46:26;18.00;;;5.85;;
75837;SDS011;64480;52.040;113.502;2024-03-08T08:49:29;30.63;;;7.28;;
75837;SDS011;64480;52.040;113.502;2024-03-08T08:52:33;24.42;;;7.20;;
75837;SDS011;64480;52.040;113.502;2024-03-08T08:55:40;22.30;;;6.18;;
75837;SDS011;64480;52.040;113.502;2024-03-08T08:58:43;24.27;;;7.78;;
75837;SDS011;64480;52.040;113.502;2024-03-08T09:01:47;29.95;;;7.90;;
75837;SDS011;64480;52.040;113.502;2024-03-08T09:04:50;22.30;;;8.98;;
75837;SDS011;64480;52.040;113.502;2024-03-08T09:07:54;19.55;;;7.90;;
75837;SDS011;64480;52.040;113.502;2024-03-08T09:10:59;28.38;;;8.90;;
75837;SDS011;64480;52.040;113.502;2024-03-08T09:14:02;21.85;;;8.05;;
75837;SDS011;64480;52.040;113.502;2024-03-08T09:17:11;29.25;;;8.73;;
75837;SDS011;64480;52.040;113.502;2024-03-08T09:20:14;30.38;;;11.05;;
75837;SDS011;64480;52.040;113.502;2024-03-08T09:23:20;47.13;;;10.50;;
75837;SDS011;64480;52.040;113.502;2024-03-08T09:26:24;41.03;;;10.95;;
75837;SDS011;64480;52.040;113.502;2024-03-08T09:29:31;47.10;;;10.13;;
75837;SDS011;64480;52.040;113.502;2024-03-08T09:32:34;36.42;;;9.32;;
75837;SDS011;64480;52.040;113.502;2024-03-08T09:35:40;15.55;;;6.40;;
75837;SDS011;64480;52.040;113.502;2024-03-08T09:38:44;24.90;;;8.50;;
75837;SDS011;64480;52.040;113.502;2024-03-08T09:41:51;19.45;;;8.18;;
75837;SDS011;64480;52.040;113.502;2024-03-08T09:44:55;22.45;;;7.75;;
75837;SDS011;64480;52.040;113.502;2024-03-08T09:47:59;50.13;;;10.18;;
75837;SDS011;64480;52.040;113.502;2024-03-08T09:51:03;68.47;;;12.30;;
75837;SDS011;64480;52.040;113.502;2024-03-08T09:54:11;43.92;;;10.35;;
75837;SDS011;64480;52.040;113.502;2024-03-08T09:57:25;43.90;;;10.30;;
75837;SDS011;64480;52.040;113.502;2024-03-08T10:00:32;74.18;;;11.98;;
75837;SDS011;64480;52.040;113.502;2024-03-08T10:03:36;30.50;;;8.70;;
75837;SDS011;64480;52.040;113.502;2024-03-08T10:06:41;29.70;;;8.23;;
75837;SDS011;64480;52.040;113.502;2024-03-08T10:10:00;34.30;;;8.13;;
75837;SDS011;64480;52.040;113.502;2024-03-08T10:13:09;21.45;;;7.25;;
75837;SDS011;64480;52.040;113.502;2024-03-08T10:16:18;67.03;;;12.73;;
75837;SDS011;64480;52.040;113.502;2024-03-08T10:19:24;34.10;;;10.77;;
75837;SDS011;64480;52.040;113.502;2024-03-08T10:22:29;41.80;;;12.60;;
75837;SDS011;64480;52.040;113.502;2024-03-08T10:25:38;39.22;;;10.15;;
75837;SDS011;64480;52.040;113.502;2024-03-08T10:28:44;42.78;;;11.20;;
75837;SDS011;64480;52.040;113.502;2024-03-08T10:31:53;46.05;;;14.85;;
75837;SDS011;64480;52.040;113.502;2024-03-08T10:35:19;51.28;;;16.38;;
75837;SDS011;64480;52.040;113.502;2024-03-08T10:38:25;27.20;;;9.60;;
75837;SDS011;64480;52.040;113.502;2024-03-08T10:41:35;31.65;;;9.52;;
75837;SDS011;64480;52.040;113.502;2024-03-08T10:48:30;27.73;;;10.55;;
75837;SDS011;64480;52.040;113.502;2024-03-08T10:51:42;33.35;;;10.60;;
75837;SDS011;64480;52.040;113.502;2024-03-08T10:54:47;34.20;;;9.75;;
75837;SDS011;64480;52.040;113.502;2024-03-08T10:57:56;35.05;;;9.63;;
75837;SDS011;64480;52.040;113.502;2024-03-08T11:01:02;39.30;;;11.82;;
75837;SDS011;64480;52.040;113.502;2024-03-08T11:04:13;26.70;;;9.85;;
75837;SDS011;64480;52.040;113.502;2024-03-08T11:07:24;33.15;;;10.30;;
75837;SDS011;64480;52.040;113.502;2024-03-08T11:10:30;40.70;;;13.30;;
75837;SDS011;64480;52.040;113.502;2024-03-08T11:13:39;31.85;;;10.07;;
75837;SDS011;64480;52.040;113.502;2024-03-08T11:16:44;45.10;;;9.63;;
75837;SDS011;64480;52.040;113.502;2024-03-08T11:19:51;38.03;;;11.88;;
75837;SDS011;64480;52.040;113.502;2024-03-08T11:23:03;33.17;;;12.35;;
75837;SDS011;64480;52.040;113.502;2024-03-08T11:26:31;39.05;;;12.40;;
75837;SDS011;64480;52.040;113.502;2024-03-08T11:29:36;49.10;;;16.45;;
75837;SDS011;64480;52.040;113.502;2024-03-08T11:32:44;51.03;;;14.82;;
75837;SDS011;64480;52.040;113.502;2024-03-08T11:35:52;71.22;;;20.42;;
75837;SDS011;64480;52.040;113.502;2024-03-08T11:39:10;42.58;;;13.65;;
75837;SDS011;64480;52.040;113.502;2024-03-08T11:42:18;53.95;;;15.25;;
75837;SDS011;64480;52.040;113.502;2024-03-08T11:45:25;47.38;;;15.40;;
75837;SDS011;64480;52.040;113.502;2024-03-08T11:48:32;55.97;;;16.08;;
75837;SDS011;64480;52.040;113.502;2024-03-08T11:51:42;47.58;;;15.55;;
75837;SDS011;64480;52.040;113.502;2024-03-08T11:54:52;41.97;;;16.08;;
75837;SDS011;64480;52.040;113.502;2024-03-08T11:58:06;36.15;;;13.30;;
75837;SDS011;64480;52.040;113.502;2024-03-08T12:01:14;39.28;;;12.15;;
75837;SDS011;64480;52.040;113.502;2024-03-08T12:04:21;49.70;;;19.13;;
75837;SDS011;64480;52.040;113.502;2024-03-08T12:07:28;37.92;;;12.35;;
75837;SDS011;64480;52.040;113.502;2024-03-08T12:10:40;42.60;;;12.23;;
75837;SDS011;64480;52.040;113.502;2024-03-08T12:13:46;48.03;;;12.57;;
75837;SDS011;64480;52.040;113.502;2024-03-08T12:16:56;34.13;;;10.25;;
75837;SDS011;64480;52.040;113.502;2024-03-08T12:20:20;34.10;;;9.35;;
75837;SDS011;64480;52.040;113.502;2024-03-08T12:23:26;32.05;;;9.70;;
75837;SDS011;64480;52.040;113.502;2024-03-08T12:26:29;29.25;;;10.18;;
75837;SDS011;64480;52.040;113.502;2024-03-08T12:29:37;31.45;;;8.43;;
75837;SDS011;64480;52.040;113.502;2024-03-08T12:33:03;16.58;;;7.88;;
75837;SDS011;64480;52.040;113.502;2024-03-08T12:36:12;19.42;;;7.25;;
75837;SDS011;64480;52.040;113.502;2024-03-08T12:39:21;19.80;;;7.05;;
75837;SDS011;64480;52.040;113.502;2024-03-08T12:42:32;20.77;;;8.40;;
75837;SDS011;64480;52.040;113.502;2024-03-08T12:45:55;29.38;;;10.07;;
75837;SDS011;64480;52.040;113.502;2024-03-08T12:49:04;46.03;;;15.20;;
75837;SDS011;64480;52.040;113.502;2024-03-08T12:52:26;49.55;;;15.95;;
75837;SDS011;64480;52.040;113.502;2024-03-08T12:55:43;69.60;;;20.45;;
75837;SDS011;64480;52.040;113.502;2024-03-08T12:58:55;48.10;;;18.20;;
75837;SDS011;64480;52.040;113.502;2024-03-08T13:02:07;69.80;;;21.30;;
75837;SDS011;64480;52.040;113.502;2024-03-08T13:05:25;73.88;;;26.65;;
75837;SDS011;64480;52.040;113.502;2024-03-08T13:08:38;82.00;;;26.50;;
75837;SDS011;64480;52.040;113.502;2024-03-08T13:11:48;65.30;;;24.13;;
75837;SDS011;64480;52.040;113.502;2024-03-08T13:15:14;81.35;;;26.95;;
75837;SDS011;64480;52.040;113.502;2024-03-08T13:18:24;63.50;;;23.65;;
75837;SDS011;64480;52.040;113.502;2024-03-08T13:21:35;80.22;;;27.13;;
75837;SDS011;64480;52.040;113.502;2024-03-08T13:24:44;66.43;;;23.55;;
75837;SDS011;64480;52.040;113.502;2024-03-08T13:27:52;84.88;;;23.63;;
75837;SDS011;64480;52.040;113.502;2024-03-08T13:31:03;54.25;;;21.50;;
75837;SDS011;64480;52.040;113.502;2024-03-08T13:34:14;59.97;;;21.30;;
75837;SDS011;64480;52.040;113.502;2024-03-08T13:37:26;57.88;;;21.83;;
75837;SDS011;64480;52.040;113.502;2024-03-08T13:40:33;47.13;;;17.60;;
75837;SDS011;64480;52.040;113.502;2024-03-08T13:43:51;46.25;;;18.13;;
75837;SDS011;64480;52.040;113.502;2024-03-08T13:47:06;51.47;;;16.85;;
75837;SDS011;64480;52.040;113.502;2024-03-08T13:50:14;53.38;;;19.65;;
75837;SDS011;64480;52.040;113.502;2024-03-08T13:53:27;50.63;;;18.05;;
75837;SDS011;64480;52.040;113.502;2024-03-08T13:59:43;31.48;;;13.35;;
75837;SDS011;64480;52.040;113.502;2024-03-08T14:02:47;41.40;;;15.20;;
75837;SDS011;64480;52.040;113.502;2024-03-08T14:05:54;39.88;;;16.27;;
75837;SDS011;64480;52.040;113.502;2024-03-08T14:08:59;50.55;;;17.50;;
75837;SDS011;64480;52.040;113.502;2024-03-08T14:12:04;38.10;;;14.32;;
75837;SDS011;64480;52.040;113.502;2024-03-08T14:18:20;33.58;;;11.25;;
75837;SDS011;64480;52.040;113.502;2024-03-08T14:21:31;26.30;;;12.15;;
75837;SDS011;64480;52.040;113.502;2024-03-08T14:24:39;32.67;;;13.18;;
75837;SDS011;64480;52.040;113.502;2024-03-08T14:27:44;51.05;;;16.27;;
75837;SDS011;64480;52.040;113.502;2024-03-08T14:30:52;42.65;;;18.15;;
75837;SDS011;64480;52.040;113.502;2024-03-08T14:34:07;47.83;;;19.33;;
75837;SDS011;64480;52.040;113.502;2024-03-08T14:37:17;53.45;;;19.83;;
75837;SDS011;64480;52.040;113.502;2024-03-08T14:40:30;62.28;;;22.73;;
75837;SDS011;64480;52.040;113.502;2024-03-08T14:43:43;53.17;;;20.48;;
75837;SDS011;64480;52.040;113.502;2024-03-08T14:46:58;67.38;;;21.83;;
75837;SDS011;64480;52.040;113.502;2024-03-08T14:50:02;61.40;;;23.65;;
75837;SDS011;64480;52.040;113.502;2024-03-08T14:53:13;67.85;;;22.75;;
75837;SDS011;64480;52.040;113.502;2024-03-08T14:56:22;54.35;;;22.95;;
75837;SDS011;64480;52.040;113.502;2024-03-08T14:59:30;61.50;;;23.52;;
75837;SDS011;64480;52.040;113.502;2024-03-08T15:02:39;59.97;;;22.10;;
75837;SDS011;64480;52.040;113.502;2024-03-08T15:05:46;62.38;;;22.13;;
75837;SDS011;64480;52.040;113.502;2024-03-08T15:08:53;49.72;;;20.58;;
75837;SDS011;64480;52.040;113.502;2024-03-08T15:12:03;54.47;;;16.33;;
75837;SDS011;64480;52.040;113.502;2024-03-08T15:15:14;38.58;;;14.23;;
75837;SDS011;64480;52.040;113.502;2024-03-08T15:18:26;50.42;;;16.40;;
75837;SDS011;64480;52.040;113.502;2024-03-08T15:21:43;44.55;;;15.57;;
75837;SDS011;64480;52.040;113.502;2024-03-08T15:24:55;46.88;;;15.93;;
75837;SDS011;64480;52.040;113.502;2024-03-08T15:28:00;38.33;;;16.52;;
75837;SDS011;64480;52.040;113.502;2024-03-08T15:31:09;41.33;;;15.50;;
75837;SDS011;64480;52.040;113.502;2024-03-08T15:34:22;37.47;;;13.32;;
75837;SDS011;64480;52.040;113.502;2024-03-08T15:37:28;24.27;;;10.88;;
75837;SDS011;64480;52.040;113.502;2024-03-08T15:40:33;26.77;;;9.02;;
75837;SDS011;64480;52.040;113.502;2024-03-08T15:43:41;32.00;;;11.45;;
75837;SDS011;64480;52.040;113.502;2024-03-08T15:46:56;78.28;;;29.45;;
75837;SDS011;64480;52.040;113.502;2024-03-08T15:50:02;64.45;;;25.35;;
75837;SDS011;64480;52.040;113.502;2024-03-08T15:53:12;69.60;;;25.92;;
75837;SDS011;64480;52.040;113.502;2024-03-08T15:56:17;61.63;;;18.58;;
75837;SDS011;64480;52.040;113.502;2024-03-08T15:59:26;54.22;;;21.80;;
75837;SDS011;64480;52.040;113.502;2024-03-08T16:02:38;49.10;;;15.07;;
75837;SDS011;64480;52.040;113.502;2024-03-08T16:05:42;40.95;;;10.90;;
75837;SDS011;64480;52.040;113.502;2024-03-08T16:08:47;22.92;;;10.82;;
75837;SDS011;64480;52.040;113.502;2024-03-08T16:11:52;29.73;;;11.73;;
75837;SDS011;64480;52.040;113.502;2024-03-08T16:14:57;24.10;;;10.32;;
75837;SDS011;64480;52.040;113.502;2024-03-08T16:18:01;27.20;;;11.20;;
75837;SDS011;64480;52.040;113.502;2024-03-08T16:21:07;25.30;;;9.18;;
75837;SDS011;64480;52.040;113.502;2024-03-08T16:24:14;33.55;;;13.15;;
75837;SDS011;64480;52.040;113.502;2024-03-08T16:27:18;31.85;;;10.85;;
75837;SDS011;64480;52.040;113.502;2024-03-08T16:30:22;40.85;;;16.02;;
75837;SDS011;64480;52.040;113.502;2024-03-08T16:33:27;46.08;;;15.38;;
75837;SDS011;64480;52.040;113.502;2024-03-08T16:36:31;44.47;;;17.38;;
75837;SDS011;64480;52.040;113.502;2024-03-08T16:39:36;57.33;;;18.50;;
75837;SDS011;64480;52.040;113.502;2024-03-08T16:42:43;50.78;;;21.77;;
75837;SDS011;64480;52.040;113.502;2024-03-08T16:45:48;47.88;;;19.20;;
75837;SDS011;64480;52.040;113.502;2024-03-08T16:48:55;68.93;;;23.80;;
75837;SDS011;64480;52.040;113.502;2024-03-08T16:51:59;44.65;;;17.42;;
75837;SDS011;64480;52.040;113.502;2024-03-08T16:55:03;44.78;;;20.13;;
75837;SDS011;64480;52.040;113.502;2024-03-08T16:58:17;65.70;;;20.60;;
75837;SDS011;64480;52.040;113.502;2024-03-08T17:01:20;62.38;;;20.45;;
75837;SDS011;64480;52.040;113.502;2024-03-08T17:04:25;32.88;;;15.60;;
75837;SDS011;64480;52.040;113.502;2024-03-08T17:07:29;62.38;;;25.52;;
75837;SDS011;64480;52.040;113.502;2024-03-08T17:10:34;73.70;;;24.77;;
75837;SDS011;64480;52.040;113.502;2024-03-08T17:13:40;69.85;;;27.15;;
75837;SDS011;64480;52.040;113.502;2024-03-08T17:16:46;107.97;;;33.13;;
75837;SDS011;64480;52.040;113.502;2024-03-08T17:19:50;87.20;;;30.70;;
75837;SDS011;64480;52.040;113.502;2024-03-08T17:22:54;79.15;;;29.15;;
75837;SDS011;64480;52.040;113.502;2024-03-08T17:26:09;42.25;;;15.43;;
75837;SDS011;64480;52.040;113.502;2024-03-08T17:29:16;24.77;;;10.80;;
75837;SDS011;64480;52.040;113.502;2024-03-08T17:32:22;28.08;;;11.30;;
75837;SDS011;64480;52.040;113.502;2024-03-08T17:35:27;26.98;;;9.02;;
75837;SDS011;64480;52.040;113.502;2024-03-08T17:38:33;32.03;;;8.98;;
75837;SDS011;64480;52.040;113.502;2024-03-08T17:41:37;21.65;;;8.63;;
75837;SDS011;64480;52.040;113.502;2024-03-08T17:44:43;36.42;;;9.70;;
75837;SDS011;64480;52.040;113.502;2024-03-08T17:47:48;19.75;;;9.65;;
75837;SDS011;64480;52.040;113.502;2024-03-08T17:50:52;36.50;;;12.02;;
75837;SDS011;64480;52.040;113.502;2024-03-08T17:53:57;31.23;;;11.90;;
75837;SDS011;64480;52.040;113.502;2024-03-08T17:57:02;42.70;;;15.30;;
75837;SDS011;64480;52.040;113.502;2024-03-08T18:00:07;33.25;;;15.07;;
75837;SDS011;64480;52.040;113.502;2024-03-08T18:03:20;32.78;;;14.15;;